createdAt,value
2024-05-09T00:05:03.440Z,101980.80
2024-05-09T00:10:34.630Z,101982.82
2024-05-09T00:15:59.856Z,101986.03
2024-05-09T00:21:25.262Z,101981.05
2024-05-09T00:26:48.181Z,101973.93
2024-05-09T00:32:10.729Z,101974.50
2024-05-09T00:37:33.254Z,101967.15
2024-05-09T00:42:59.684Z,101966.30
2024-05-09T00:48:23.798Z,101966.55
2024-05-09T00:53:46.546Z,101965.45
2024-05-09T00:59:10.393Z,101967.98
2024-05-09T01:04:33.778Z,101958.41
2024-05-09T01:09:36.793Z,101949.46
2024-05-09T01:14:39.582Z,101941.23
2024-05-09T01:19:42.453Z,101930.35
2024-05-09T01:24:45.122Z,101929.89
2024-05-09T01:29:47.743Z,101928.53
2024-05-09T01:34:50.363Z,101928.69
2024-05-09T01:39:52.974Z,101930.28
2024-05-09T01:44:55.673Z,101932.48
2024-05-09T01:49:58.221Z,101931.40
2024-05-09T01:55:04.631Z,101936.39
2024-05-09T02:00:10.390Z,101932.23
2024-05-09T02:05:13.525Z,101926.91
2024-05-09T02:10:20.570Z,101926.42
2024-05-09T02:15:28.829Z,101927.27
2024-05-09T02:20:36.140Z,101927.88
2024-05-09T02:25:40.763Z,101928.38
2024-05-09T02:30:43.453Z,101924.36
2024-05-09T02:35:46.177Z,101928.02
2024-05-09T02:40:48.759Z,101924.59
2024-05-09T02:45:51.581Z,101914.41
2024-05-09T02:50:54.347Z,101910.55
2024-05-09T02:55:57.632Z,101911.41
2024-05-09T03:01:01.191Z,101909.77
2024-05-09T03:06:04.078Z,101911.88
2024-05-09T03:11:07.013Z,101918.30
2024-05-09T03:16:09.645Z,101919.43
2024-05-09T03:21:12.231Z,101915.42
2024-05-09T03:26:17.244Z,101913.30
2024-05-09T03:31:20.136Z,101906.13
2024-05-09T03:36:22.828Z,101908.80
2024-05-09T03:41:25.508Z,101912.50
2024-05-09T03:46:28.242Z,101911.70
2024-05-09T03:51:30.735Z,101912.66
2024-05-09T03:56:33.356Z,101905.31
2024-05-09T04:01:36.003Z,101900.28
2024-05-09T04:06:38.787Z,101891.48
2024-05-09T04:12:01.648Z,101893.53
2024-05-09T04:17:24.619Z,101896.98
2024-05-09T04:22:47.308Z,101904.52
2024-05-09T04:27:50.309Z,101906.89
2024-05-09T04:32:52.947Z,101911.27
2024-05-09T04:37:55.682Z,101914.92
2024-05-09T04:42:58.128Z,101917.34
2024-05-09T04:48:01.439Z,101917.73
2024-05-09T04:53:05.472Z,101916.08
2024-05-09T04:58:09.447Z,101919.71
2024-05-09T05:03:14.868Z,101912.09
2024-05-09T05:08:20.938Z,101909.23
2024-05-09T05:13:24.582Z,101910.20
2024-05-09T05:18:28.271Z,101908.64
2024-05-09T05:23:31.447Z,101908.19
2024-05-09T05:28:34.024Z,101907.92
2024-05-09T05:33:56.529Z,101906.73
2024-05-09T05:39:19.206Z,101902.91
2024-05-09T05:44:41.889Z,101895.48
2024-05-09T05:50:07.222Z,101893.20
2024-05-09T05:55:34.374Z,101894.29
2024-05-09T06:00:39.731Z,101898.52
2024-05-09T06:05:46.946Z,101898.66
2024-05-09T06:10:50.753Z,101898.67
2024-05-09T06:15:56.739Z,101896.48
2024-05-09T06:21:00.643Z,101890.84
2024-05-09T06:26:04.904Z,101880.11
2024-05-09T06:31:07.971Z,101873.25
2024-05-09T06:36:34.223Z,101864.05
2024-05-09T06:42:02.792Z,101856.38
2024-05-09T06:47:08.022Z,101853.90
2024-05-09T06:52:18.730Z,101848.05
2024-05-09T06:57:30.496Z,101850.38
2024-05-09T07:02:38.408Z,101852.48
2024-05-09T07:07:45.669Z,101838.89
2024-05-09T07:13:08.911Z,101845.02
2024-05-09T07:18:36.905Z,101853.85
2024-05-09T07:24:00.065Z,101851.27
2024-05-09T07:29:02.799Z,101847.61
2024-05-09T07:34:05.379Z,101846.86
2024-05-09T07:39:09.256Z,101846.35
2024-05-09T07:44:12.027Z,101842.15
2024-05-09T07:50:55.826Z,101839.45
2024-05-09T07:54:39.630Z,101837.14
2024-05-09T07:59:42.298Z,101834.61
2024-05-09T08:04:45.050Z,101834.20
2024-05-09T08:09:47.783Z,101832.69
2024-05-09T08:14:53.066Z,101828.66
2024-05-09T08:19:56.170Z,101826.28
2024-05-09T08:25:02.695Z,101828.80
2024-05-09T08:30:18.585Z,101829.90
2024-05-09T08:35:25.138Z,101822.85
2024-05-09T08:40:48.341Z,101814.75
2024-05-09T08:45:51.762Z,101804.09
2024-05-09T08:51:14.688Z,101807.30
2024-05-09T08:56:40.362Z,101803.38
2024-05-09T09:02:04.851Z,101795.70
2024-05-09T09:07:27.779Z,101793.42
2024-05-09T09:12:30.633Z,101796.74
2024-05-09T09:17:33.359Z,101800.10
2024-05-09T09:22:36.150Z,101799.05
2024-05-09T09:27:39.350Z,101803.77
2024-05-09T09:32:42.005Z,101799.20
2024-05-09T09:37:46.378Z,101791.31
2024-05-09T09:42:50.162Z,101786.23
2024-05-09T09:47:56.102Z,101784.67
2024-05-09T09:53:00.653Z,101777.16
2024-05-09T09:58:24.168Z,101772.59
2024-05-09T10:03:47.237Z,101768.79
2024-05-09T10:09:11.028Z,101761.56
2024-05-09T10:14:13.854Z,101761.80
2024-05-09T10:19:27.089Z,101755.89
2024-05-09T10:24:49.101Z,101756.01
2024-05-09T10:30:17.900Z,101749.08
2024-05-09T10:35:51.836Z,101746.36
2024-05-09T10:40:59.772Z,101743.98
2024-05-09T10:46:04.730Z,101743.45
2024-05-09T10:51:08.800Z,101745.50
2024-05-09T10:56:13.393Z,101747.59
2024-05-09T11:01:16.581Z,101742.61
2024-05-09T11:06:19.273Z,101735.55
2024-05-09T11:11:22.172Z,101727.06
2024-05-09T11:16:44.834Z,101719.36
2024-05-09T11:22:13.403Z,101721.29
2024-05-09T11:27:16.317Z,101721.50
2024-05-09T11:32:48.793Z,101714.39
2024-05-09T11:37:51.626Z,101705.98
2024-05-09T11:42:54.332Z,101705.84
2024-05-09T11:47:57.463Z,101695.14
2024-05-09T11:53:00.241Z,101692.31
2024-05-09T11:58:23.456Z,101692.19
2024-05-09T12:03:26.431Z,101689.82
2024-05-09T12:08:29.394Z,101691.54
2024-05-09T12:13:32.168Z,101681.54
2024-05-09T12:18:34.926Z,101679.25
2024-05-09T12:23:57.540Z,101675.59
2024-05-09T12:29:20.478Z,101670.77
2024-05-09T12:34:43.262Z,101672.69
2024-05-09T12:39:46.272Z,101670.13
2024-05-09T12:44:48.958Z,101669.61
2024-05-09T12:49:51.718Z,101665.59
2024-05-09T12:55:14.560Z,101665.52
2024-05-09T13:00:37.191Z,101663.09
2024-05-09T13:05:44.649Z,101657.17
2024-05-09T13:10:48.277Z,101652.28
2024-05-09T13:16:11.012Z,101650.60
2024-05-09T13:21:33.718Z,101636.00
2024-05-09T13:26:36.388Z,101636.27
2024-05-09T13:31:39.330Z,101625.69
2024-05-09T13:36:42.000Z,101615.59
2024-05-09T13:42:04.725Z,101616.52
2024-05-09T13:47:07.474Z,101607.61
2024-05-09T13:52:30.237Z,101612.36
2024-05-09T13:57:52.946Z,101603.80
2024-05-09T14:02:55.788Z,101596.80
2024-05-09T14:07:58.642Z,101594.48
2024-05-09T14:13:01.838Z,101591.09
2024-05-09T14:47:51.897Z,101557.31
2024-05-09T14:52:55.092Z,101547.74
2024-05-09T14:57:57.900Z,101544.55
2024-05-09T15:03:00.852Z,101533.21
2024-05-09T15:08:06.975Z,101522.73
2024-05-09T15:13:11.405Z,101523.24
2024-05-09T15:18:16.382Z,101521.02
2024-05-09T15:23:19.914Z,101516.05
2024-05-09T15:28:22.618Z,101511.58
2024-05-09T15:33:25.323Z,101507.70
2024-05-09T15:38:27.920Z,101498.90
2024-05-09T15:43:30.640Z,101496.95
2024-05-09T15:48:34.081Z,101500.20
2024-05-09T15:53:37.147Z,101492.08
2024-05-09T15:58:40.333Z,101497.20
2024-05-09T16:03:43.030Z,101495.35
2024-05-09T16:08:46.172Z,101490.33
2024-05-09T16:13:48.760Z,101479.00
2024-05-09T16:18:51.558Z,101477.83
2024-05-09T16:23:54.562Z,101471.67
2024-05-09T16:28:57.339Z,101474.14
2024-05-09T16:34:00.186Z,101467.83
2024-05-09T16:39:03.630Z,101465.73
2024-05-09T16:44:06.397Z,101466.83
2024-05-09T16:49:10.692Z,101468.18
2024-05-09T16:54:13.835Z,101463.06
2024-05-09T16:59:16.937Z,101463.69
2024-05-09T17:04:21.684Z,101460.45
2024-05-09T17:09:24.447Z,101459.29
2024-05-09T17:14:27.295Z,101459.98
2024-05-09T17:19:30.029Z,101462.96
2024-05-09T17:24:32.764Z,101461.95
2024-05-09T17:29:37.006Z,101458.23
2024-05-09T17:34:39.951Z,101458.63
2024-05-09T17:39:42.646Z,101450.40
2024-05-09T17:44:45.322Z,101441.75
2024-05-09T17:49:47.927Z,101443.48
2024-05-09T17:54:50.712Z,101446.69
2024-05-09T17:59:53.913Z,101440.16
2024-05-09T18:04:56.600Z,101439.06
2024-05-09T18:09:59.849Z,101438.43
2024-05-09T18:15:02.974Z,101439.45
2024-05-09T18:20:08.972Z,101436.95
2024-05-09T18:25:11.838Z,101440.61
2024-05-09T18:30:24.090Z,101446.03
2024-05-09T18:35:34.162Z,101452.36
2024-05-09T18:40:38.548Z,101451.55
2024-05-09T18:45:45.685Z,101448.11
2024-05-09T18:50:49.009Z,101445.92
2024-05-09T18:55:51.890Z,101449.25
2024-05-09T19:00:56.534Z,101445.10
2024-05-09T19:06:00.824Z,101444.37
2024-05-09T19:11:03.798Z,101446.52
2024-05-09T19:16:07.054Z,101444.27
2024-05-09T19:21:09.716Z,101445.63
2024-05-09T19:26:12.723Z,101439.56
2024-05-09T19:31:15.525Z,101441.33
2024-05-09T19:36:19.366Z,101444.35
2024-05-09T19:41:22.623Z,101442.37
2024-05-09T19:46:25.428Z,101439.73
2024-05-09T19:51:27.986Z,101437.88
2024-05-09T19:56:31.012Z,101439.02
2024-05-09T20:01:33.977Z,101430.45
2024-05-09T20:06:37.269Z,101427.93
2024-05-09T20:11:39.851Z,101425.07
2024-05-09T20:16:44.558Z,101424.38
2024-05-09T20:21:47.298Z,101421.86
2024-05-09T20:26:50.006Z,101417.38
2024-05-09T20:31:52.848Z,101412.20
2024-05-09T20:36:55.469Z,101406.38
2024-05-09T20:41:58.744Z,101403.05
2024-05-09T20:47:01.847Z,101396.90
2024-05-09T20:52:04.847Z,101393.95
2024-05-09T20:57:07.795Z,101389.91
2024-05-09T21:02:10.788Z,101384.10
2024-05-09T21:07:13.695Z,101381.88
2024-05-09T21:12:18.621Z,101381.02
2024-05-09T21:17:21.423Z,101378.59
2024-05-09T21:22:24.240Z,101376.48
2024-05-09T21:27:26.878Z,101376.59
2024-05-09T21:32:29.770Z,101370.98
2024-05-09T21:37:32.326Z,101367.58
2024-05-09T21:42:35.299Z,101363.90
2024-05-09T21:47:38.329Z,101362.62
2024-05-09T21:52:41.033Z,101356.98
2024-05-09T21:57:43.995Z,101353.49
2024-05-09T22:02:46.690Z,101353.56
2024-05-09T22:07:49.363Z,101350.39
2024-05-09T22:12:52.073Z,101345.56
2024-05-09T22:17:56.619Z,101342.52
2024-05-09T22:23:00.231Z,101340.52
2024-05-09T22:28:03.462Z,101336.98
2024-05-09T22:33:08.453Z,101339.02
2024-05-09T22:38:12.299Z,101334.16
2024-05-09T22:43:23.460Z,101332.66
2024-05-09T22:48:28.128Z,101326.70
2024-05-09T22:53:30.814Z,101327.08
2024-05-09T22:58:34.623Z,101323.23
2024-05-09T23:03:38.973Z,101318.96
2024-05-09T23:08:41.754Z,101314.06
2024-05-09T23:13:44.417Z,101309.98
2024-05-09T23:18:47.897Z,101302.11
2024-05-09T23:23:50.871Z,101299.27
2024-05-09T23:28:53.449Z,101292.16
2024-05-09T23:33:56.262Z,101288.20
2024-05-09T23:39:00.052Z,101279.02
2024-05-09T23:44:02.712Z,101277.89
2024-05-09T23:49:05.685Z,101274.44
2024-05-09T23:54:08.899Z,101272.89
2024-05-09T23:59:12.101Z,101263.71
